METAR Data
IDs: Format: Raw Decoded Include TAF

Data at: 0516 UTC 20 Oct 2018

METAR for:KJAX (Jacksonville Intl, FL, US)
Text:KJAX 200456Z 00000KT 10SM FEW090 SCT250 21/21 A3010 RMK AO2 SLP192 T02110206 403060206
Temperature: 21.1°C ( 70°F)
Dewpoint: 20.6°C ( 69°F) [RH = 97%]
Pressure (altimeter):30.10 inches Hg (1019.4 mb) [Sea level pressure: 1019.2 mb]
Winds:calm
Visibility:10 or more sm (16+ km)
Ceiling:at least 12,000 feet AGL
Clouds: few clouds at 9000 feet AGL, scattered clouds at 25000 feet AGL

METAR for:KCRG (Jacksonville/Executi, FL, US)
Text:KCRG 200453Z AUTO 00000KT 10SM CLR 22/21 A3010 RMK AO2 SLP193 T02170211 402940217
Temperature: 21.7°C ( 71°F)
Dewpoint: 21.1°C ( 70°F) [RH = 96%]
Pressure (altimeter):30.10 inches Hg (1019.4 mb) [Sea level pressure: 1019.3 mb]
Winds:calm
Visibility:10 or more sm (16+ km)
Ceiling:at least 12,000 feet AGL
Clouds:sky clear below 12,000 feet AGL
QC Flag:automated observation with no human augmentation

METAR for:KNIP (Jacksonville (NAS), FL, US)
Text:KNIP 200353Z 00000KT 10SM FEW090 SCT250 26/23 A3013 RMK SLP197 T02610228
Temperature: 26.1°C ( 79°F)
Dewpoint: 22.8°C ( 73°F) [RH = 82%]
Pressure (altimeter):30.13 inches Hg (1020.4 mb) [Sea level pressure: 1019.7 mb]
Winds:calm
Visibility:10 or more sm (16+ km)
Ceiling:at least 12,000 feet AGL
Clouds: few clouds at 9000 feet AGL, scattered clouds at 25000 feet AGL

METAR for:KNRB (Mayport (NS), FL, US)
Text:KNRB 200452Z AUTO 15004KT 10SM CLR 23/22 A3010 RMK AO2 SLP191 T02330217
Temperature: 23.3°C ( 74°F)
Dewpoint: 21.7°C ( 71°F) [RH = 91%]
Pressure (altimeter):30.10 inches Hg (1019.4 mb) [Sea level pressure: 1019.1 mb]
Winds:from the SSE (150 degrees) at 5 MPH (4 knots; 2.1 m/s)
Visibility:10 or more sm (16+ km)
Ceiling:at least 12,000 feet AGL
Clouds:sky clear below 12,000 feet AGL
QC Flag:automated observation with no human augmentation

METAR for:KFHB (Fernandina Beach Mun, FL, US)
Text:No data found

METAR for:KVQQ (Jacksonville/Cecil A, FL, US)
Text:KVQQ 200455Z AUTO 00000KT 10SM CLR 21/20 A3011 RMK AO2
Temperature: 21.0°C ( 70°F)
Dewpoint: 20.0°C ( 68°F) [RH = 94%]
Pressure (altimeter):30.11 inches Hg (1019.7 mb)
Winds:calm
Visibility:10 or more sm (16+ km)
Ceiling:at least 12,000 feet AGL
Clouds:sky clear below 12,000 feet AGL
QC Flag:automated observation with no human augmentation